Time;durP1;ratioP1;P1;durP2;ratioP2;P2;SDS_P1;SDS_P2;PMS_P1;PMS_P2;Temp;Humidity;BMP_temperature;BMP_pressure;BME280_temperature;BME280_humidity;BME280_pressure;Samples;Min_cycle;Max_cycle;Signal;HPM_P1;HPM_P2
2023/04/15 00:01:52;;;;;;;;;;;;;;;;;;4991579;28;19930;-84
2023/04/15 00:04:20;;;;;;;;;;;;;;;;;;4990997;28;19925;-88
2023/04/15 00:06:48;;;;;;;;;;;;;;;;;;4988327;28;19941;-86
2023/04/15 00:09:15;;;;;;;;;;;;;;;;;;5008118;28;19930;-86
2023/04/15 00:11:48;;;;;;;;;;;;;;;;;;5007713;28;19930;-86
2023/04/15 00:14:15;;;;;;;;;;;;;;;;;;4992418;28;19926;-86
2023/04/15 00:16:54;;;;;;;;;;;;;;;;;;4993677;28;19937;-84
2023/04/15 00:19:21;;;;;;;;;;;;;;;;;;4991016;28;19980;-86
2023/04/15 00:21:49;;;;;;;;;;;;;;;;;;4988863;28;20192;-84
2023/04/15 00:24:16;;;;;;;;;;;;;;;;;;5007180;28;19956;-86
2023/04/15 00:26:44;;;;;;;;;;;;;;;;;;4988820;28;19926;-87
2023/04/15 00:29:11;;;;;;;;;;;;;;;;;;4989986;28;19925;-86
2023/04/15 00:31:39;;;;;;;;;;;;;;;;;;5007111;28;19926;-87
2023/04/15 00:34:11;;;;;;;;;;;;;;;;;;5006362;28;19926;-83
2023/04/15 00:36:39;;;;;;;;;;;;;;;;;;4984129;28;19925;-86
2023/04/15 00:39:06;;;;;;;;;;;;;;;;;;5010751;28;19929;-86
2023/04/15 00:41:39;;;;;;;;;;;;;;;;;;4991032;28;19933;-86
2023/04/15 00:44:08;;;;;;;;;;;;;;;;;;4990734;28;19930;-86
2023/04/15 00:46:40;;;;;;;;;;;;;;;;;;4991400;28;19933;-87
2023/04/15 00:49:08;;;;;;;;;;;;;;;;;;4998258;28;19930;-85
2023/04/15 00:51:41;;;;;;;;;;;;;;;;;;4993007;28;19930;-85
2023/04/15 00:54:13;;;;;;;;;;;;;;;;;;4995189;28;19930;-86
2023/04/15 00:56:45;;;;;;;;;;;;;;;;;;4996300;28;19930;-87
2023/04/15 00:59:13;;;;;;;;;;;;;;;;;;4994383;28;19930;-85
2023/04/15 01:01:41;;;;;;;;;;;;;;;;;;5009375;28;20263;-86
2023/04/15 01:04:10;;;;;;;;;;;;;;;;;;5010104;28;19926;-86
2023/04/15 01:06:37;;;;;;;;;;;;;;;;;;4994989;28;19953;-86
2023/04/15 01:09:05;;;;;;;;;;;;;;;;;;4994917;28;19937;-86
2023/04/15 01:11:33;;;;;;;;;;;;;;;;;;5010168;28;20383;-86
2023/04/15 01:14:00;;;;;;;;;;;;;;;;;;4995054;28;19930;-86
2023/04/15 01:16:28;;;;;;;;;;;;;;;;;;5006341;28;19942;-85
2023/04/15 01:18:56;;;;;;;;;;;;;;;;;;4997848;28;19926;-85
2023/04/15 01:21:23;;;;;;;;;;;;;;;;;;4993200;28;19934;-86
2023/04/15 01:23:51;;;;;;;;;;;;;;;;;;4994348;28;19934;-87
2023/04/15 01:26:18;;;;;;;;;;;;;;;;;;4994447;28;19926;-86
2023/04/15 01:28:46;;;;;;;;;;;;;;;;;;4993872;28;19933;-86
2023/04/15 01:31:13;;;;;;;;;;;;;;;;;;5008516;28;19930;-87
2023/04/15 01:33:46;;;;;;;;;;;;;;;;;;5011183;28;19941;-85
2023/04/15 01:36:18;;;;;;;;;;;;;;;;;;4992922;28;20013;-85
2023/04/15 01:38:46;;;;;;;;;;;;;;;;;;4993579;28;19929;-87
2023/04/15 01:41:14;;;;;;;;;;;;;;;;;;5002833;28;19926;-85
2023/04/15 01:43:41;;;;;;;;;;;;;;;;;;5000840;28;19926;-85
2023/04/15 01:46:09;;;;;;;;;;;;;;;;;;5002364;28;20302;-84
2023/04/15 01:48:36;;;;;;;;;;;;;;;;;;5009835;28;20322;-87
2023/04/15 01:51:09;;;;;;;;;;;;;;;;;;4995028;28;19926;-87
2023/04/15 01:53:36;;;;;;;;;;;;;;;;;;4993809;28;19933;-87
2023/04/15 01:56:09;;;;;;;;;;;;;;;;;;4985554;28;20307;-86
2023/04/15 01:58:36;;;;;;;;;;;;;;;;;;5009915;28;19937;-86
2023/04/15 02:01:04;;;;;;;;;;;;;;;;;;4994980;28;19926;-86
2023/04/15 02:03:31;;;;;;;;;;;;;;;;;;4995286;28;20037;-86
2023/04/15 02:05:59;;;;;;;;;;;;;;;;;;4990133;28;19931;-87
2023/04/15 02:08:31;;;;;;;;;;;;;;;;;;4993041;28;19926;-85
2023/04/15 02:11:00;;;;;;;;;;;;;;;;;;5008886;28;19932;-86
2023/04/15 02:13:32;;;;;;;;;;;;;;;;;;5002205;28;19932;-84
2023/04/15 02:16:05;;;;;;;;;;;;;;;;;;4992265;28;20306;-86
2023/04/15 02:18:37;;;;;;;;;;;;;;;;;;4992013;28;19930;-87
2023/04/15 02:21:10;;;;;;;;;;;;;;;;;;4992349;28;19933;-87
2023/04/15 02:23:38;;;;;;;;;;;;;;;;;;4989597;28;19937;-86
2023/04/15 02:26:05;;;;;;;;;;;;;;;;;;5009342;28;19925;-87
2023/04/15 02:28:33;;;;;;;;;;;;;;;;;;5009809;28;20302;-85
2023/04/15 02:31:01;;;;;;;;;;;;;;;;;;4993632;28;20516;-88
2023/04/15 02:33:31;;;;;;;;;;;;;;;;;;5003194;28;20405;-87
2023/04/15 02:36:00;;;;;;;;;;;;;;;;;;4991184;28;19929;-87
2023/04/15 02:38:28;;;;;;;;;;;;;;;;;;5008264;28;19937;-87
2023/04/15 02:40:56;;;;;;;;;;;;;;;;;;5009339;28;20006;-86
2023/04/15 02:43:24;;;;;;;;;;;;;;;;;;5008622;28;19930;-85
2023/04/15 02:45:52;;;;;;;;;;;;;;;;;;4989537;28;19925;-86
2023/04/15 02:48:20;;;;;;;;;;;;;;;;;;4992564;28;19933;-85
2023/04/15 02:50:48;;;;;;;;;;;;;;;;;;4993365;28;19930;-85
2023/04/15 02:53:20;;;;;;;;;;;;;;;;;;5003426;28;19926;-87
2023/04/15 02:55:48;;;;;;;;;;;;;;;;;;4993272;28;19933;-85
2023/04/15 02:58:15;;;;;;;;;;;;;;;;;;4993316;28;19949;-87
2023/04/15 03:00:43;;;;;;;;;;;;;;;;;;5009330;28;19933;-86
2023/04/15 03:03:10;;;;;;;;;;;;;;;;;;5009083;28;19934;-86
2023/04/15 03:05:38;;;;;;;;;;;;;;;;;;4998796;28;19929;-85
2023/04/15 03:08:06;;;;;;;;;;;;;;;;;;5008663;28;19925;-86
2023/04/15 03:10:38;;;;;;;;;;;;;;;;;;4991953;28;19934;-87
2023/04/15 03:13:11;;;;;;;;;;;;;;;;;;4992702;28;19933;-87
2023/04/15 03:15:43;;;;;;;;;;;;;;;;;;5002762;28;20407;-85
2023/04/15 03:18:11;;;;;;;;;;;;;;;;;;4991597;28;19945;-86
2023/04/15 03:20:40;;;;;;;;;;;;;;;;;;4991819;28;19926;-88
2023/04/15 03:23:12;;;;;;;;;;;;;;;;;;4990896;28;20314;-87
2023/04/15 03:25:45;;;;;;;;;;;;;;;;;;5006834;28;20481;-86
2023/04/15 03:28:13;;;;;;;;;;;;;;;;;;5008226;28;19933;-87
2023/04/15 03:30:40;;;;;;;;;;;;;;;;;;4993493;28;19926;-86
2023/04/15 03:33:08;;;;;;;;;;;;;;;;;;5008450;28;20318;-86
2023/04/15 03:35:36;;;;;;;;;;;;;;;;;;4991684;28;19929;-86
2023/04/15 03:38:08;;;;;;;;;;;;;;;;;;4992269;28;20632;-86
2023/04/15 03:40:41;;;;;;;;;;;;;;;;;;4992398;28;19932;-86
2023/04/15 03:43:09;;;;;;;;;;;;;;;;;;4983579;28;19934;-88
2023/04/15 03:45:36;;;;;;;;;;;;;;;;;;4991020;28;19933;-85
2023/04/15 03:48:08;;;;;;;;;;;;;;;;;;5007634;28;20747;-87
2023/04/15 03:50:41;;;;;;;;;;;;;;;;;;5008946;28;19948;-87
2023/04/15 03:53:09;;;;;;;;;;;;;;;;;;4994572;28;19933;-85
2023/04/15 03:55:36;;;;;;;;;;;;;;;;;;5007741;28;20552;-86
2023/04/15 03:58:04;;;;;;;;;;;;;;;;;;5007971;28;19929;-87
2023/04/15 04:00:31;;;;;;;;;;;;;;;;;;4991911;28;19933;-86
2023/04/15 04:02:59;;;;;;;;;;;;;;;;;;4993903;28;20805;-87
2023/04/15 04:05:31;;;;;;;;;;;;;;;;;;5005998;28;19926;-86
2023/04/15 04:07:59;;;;;;;;;;;;;;;;;;4992599;28;19933;-87
2023/04/15 04:10:26;;;;;;;;;;;;;;;;;;4991825;28;19949;-86
2023/04/15 04:12:54;;;;;;;;;;;;;;;;;;5004844;28;20406;-84
2023/04/15 04:15:22;;;;;;;;;;;;;;;;;;4992452;28;19926;-85
2023/04/15 04:17:49;;;;;;;;;;;;;;;;;;4984751;28;19933;-85
2023/04/15 04:20:22;;;;;;;;;;;;;;;;;;4990901;28;19929;-85
2023/04/15 04:22:49;;;;;;;;;;;;;;;;;;5006233;28;19933;-82
2023/04/15 04:25:22;;;;;;;;;;;;;;;;;;4992442;28;19926;-87
2023/04/15 04:27:49;;;;;;;;;;;;;;;;;;4987644;28;19933;-87
2023/04/15 04:30:17;;;;;;;;;;;;;;;;;;4992394;28;19933;-87
2023/04/15 04:32:44;;;;;;;;;;;;;;;;;;4992021;28;19929;-86
2023/04/15 04:35:12;;;;;;;;;;;;;;;;;;4994137;28;19930;-87
2023/04/15 04:37:39;;;;;;;;;;;;;;;;;;5007174;28;19934;-87
2023/04/15 04:40:12;;;;;;;;;;;;;;;;;;4991767;28;19925;-86
2023/04/15 04:42:39;;;;;;;;;;;;;;;;;;4991480;28;19929;-84
2023/04/15 04:45:07;;;;;;;;;;;;;;;;;;5006047;28;19957;-87
2023/04/15 04:47:35;;;;;;;;;;;;;;;;;;4992127;28;20018;-86
2023/04/15 04:50:02;;;;;;;;;;;;;;;;;;5006017;28;20268;-85
2023/04/15 04:52:35;;;;;;;;;;;;;;;;;;4984226;28;20311;-84
2023/04/15 04:55:07;;;;;;;;;;;;;;;;;;5006262;28;19926;-86
2023/04/15 04:57:36;;;;;;;;;;;;;;;;;;4991188;28;20417;-86
2023/04/15 05:00:04;;;;;;;;;;;;;;;;;;5003369;28;20371;-84
2023/04/15 05:02:36;;;;;;;;;;;;;;;;;;4990426;28;20303;-87
2023/04/15 05:05:04;;;;;;;;;;;;;;;;;;4991311;28;19934;-84
2023/04/15 05:07:31;;;;;;;;;;;;;;;;;;5007202;28;20413;-86
2023/04/15 05:09:59;;;;;;;;;;;;;;;;;;4990693;28;19934;-86
2023/04/15 05:12:26;;;;;;;;;;;;;;;;;;4991577;28;19933;-85
2023/04/15 05:14:59;;;;;;;;;;;;;;;;;;5004209;28;20295;-85
2023/04/15 05:17:33;;;;;;;;;;;;;;;;;;4987831;28;19933;-87
2023/04/15 05:20:01;;;;;;;;;;;;;;;;;;5005096;28;20314;-86
2023/04/15 05:22:29;;;;;;;;;;;;;;;;;;5001667;28;19926;-86
2023/04/15 05:24:56;;;;;;;;;;;;;;;;;;5005289;28;19925;-87
2023/04/15 05:27:24;;;;;;;;;;;;;;;;;;4990387;28;19933;-86
2023/04/15 05:29:51;;;;;;;;;;;;;;;;;;4991346;28;19933;-87
2023/04/15 05:32:24;;;;;;;;;;;;;;;;;;4983742;28;19934;-86
2023/04/15 05:34:52;;;;;;;;;;;;;;;;;;4990527;28;19926;-86
2023/04/15 05:37:21;;;;;;;;;;;;;;;;;;4992665;28;19926;-87
2023/04/15 05:39:53;;;;;;;;;;;;;;;;;;5009200;28;19952;-88
2023/04/15 05:42:26;;;;;;;;;;;;;;;;;;4999117;28;19925;-85
2023/04/15 05:44:58;;;;;;;;;;;;;;;;;;4994895;28;20302;-87
2023/04/15 05:47:26;;;;;;;;;;;;;;;;;;4994462;28;19926;-86
2023/04/15 05:49:54;;;;;;;;;;;;;;;;;;5009502;28;19925;-86
2023/04/15 05:52:22;;;;;;;;;;;;;;;;;;4994481;28;19934;-86
2023/04/15 05:54:51;;;;;;;;;;;;;;;;;;5009358;28;20285;-83
2023/04/15 05:57:23;;;;;;;;;;;;;;;;;;5009671;28;19930;-86
2023/04/15 05:59:56;;;;;;;;;;;;;;;;;;4991720;28;20413;-85
2023/04/15 06:02:36;;;;;;;;;;;;;;;;;;4998261;28;19952;-87
2023/04/15 06:05:09;;;;;;;;;;;;;;;;;;4994529;28;19933;-87
2023/04/15 06:07:37;;;;;;;;;;;;;;;;;;4996981;28;19926;-85
2023/04/15 06:10:04;;;;;;;;;;;;;;;;;;4992340;28;19925;-85
2023/04/15 06:12:37;;;;;;;;;;;;;;;;;;5008903;28;20307;-82
2023/04/15 06:15:05;;;;;;;;;;;;;;;;;;4994015;28;19929;-85
2023/04/15 06:17:32;;;;;;;;;;;;;;;;;;5009041;28;20284;-89
2023/04/15 06:20:00;;;;;;;;;;;;;;;;;;4998057;28;19933;-86
2023/04/15 06:22:27;;;;;;;;;;;;;;;;;;4993519;28;19937;-86
2023/04/15 06:24:55;;;;;;;;;;;;;;;;;;4992248;28;19930;-88
2023/04/15 06:27:27;;;;;;;;;;;;;;;;;;5006995;28;20315;-87
2023/04/15 06:29:55;;;;;;;;;;;;;;;;;;5002907;28;19933;-87
2023/04/15 06:32:22;;;;;;;;;;;;;;;;;;4994668;28;19926;-87
2023/04/15 06:34:50;;;;;;;;;;;;;;;;;;5009110;28;19926;-87
2023/04/15 06:37:17;;;;;;;;;;;;;;;;;;4999632;28;20371;-90
2023/04/15 06:39:46;;;;;;;;;;;;;;;;;;4993466;28;20624;-88
2023/04/15 06:42:13;;;;;;;;;;;;;;;;;;5011565;28;19925;-88
2023/04/15 06:44:40;;;;;;;;;;;;;;;;;;4993475;28;19929;-89
2023/04/15 06:47:14;;;;;;;;;;;;;;;;;;5010389;28;19926;-88
2023/04/15 06:49:41;;;;;;;;;;;;;;;;;;5008245;28;19926;-88
2023/04/15 06:52:09;;;;;;;;;;;;;;;;;;5009862;28;19930;-88
2023/04/15 06:54:53;;;;;;;;;;;;;;;;;;4994843;28;20313;-82
2023/04/15 06:57:23;;;;;;;;;;;;;;;;;;4998696;28;19933;-88
2023/04/15 06:59:53;;;;;;;;;;;;;;;;;;5008767;28;19934;-84
2023/04/15 07:02:26;;;;;;;;;;;;;;;;;;5003955;28;19930;-85
2023/04/15 07:04:54;;;;;;;;;;;;;;;;;;5011570;28;20302;-85
2023/04/15 07:07:21;;;;;;;;;;;;;;;;;;4992516;28;19926;-86
2023/04/15 07:09:54;;;;;;;;;;;;;;;;;;5007889;28;19929;-86
2023/04/15 07:12:22;;;;;;;;;;;;;;;;;;5009789;28;19929;-84
2023/04/15 07:14:49;;;;;;;;;;;;;;;;;;5004690;28;19933;-86
2023/04/15 07:17:16;;;;;;;;;;;;;;;;;;5007092;28;20390;-87
2023/04/15 07:19:49;;;;;;;;;;;;;;;;;;4989822;28;19930;-88
2023/04/15 07:22:17;;;;;;;;;;;;;;;;;;4994511;28;20401;-88
2023/04/15 07:24:49;;;;;;;;;;;;;;;;;;5007721;28;19937;-86
2023/04/15 07:27:17;;;;;;;;;;;;;;;;;;4991715;28;19929;-88
2023/04/15 07:29:44;;;;;;;;;;;;;;;;;;5008300;28;20323;-88
2023/04/15 07:32:12;;;;;;;;;;;;;;;;;;5007294;28;19937;-87
2023/04/15 07:34:44;;;;;;;;;;;;;;;;;;4993798;28;20359;-88
2023/04/15 07:37:12;;;;;;;;;;;;;;;;;;4989893;28;19933;-89
2023/04/15 07:39:40;;;;;;;;;;;;;;;;;;5007411;28;19963;-87
2023/04/15 07:42:07;;;;;;;;;;;;;;;;;;5007794;28;19926;-86
2023/04/15 07:44:35;;;;;;;;;;;;;;;;;;4992916;28;19997;-87
2023/04/15 07:47:02;;;;;;;;;;;;;;;;;;5007378;28;20647;-88
2023/04/15 07:49:35;;;;;;;;;;;;;;;;;;4993903;28;20318;-90
2023/04/15 07:52:02;;;;;;;;;;;;;;;;;;4992986;28;19941;-89
2023/04/15 07:54:30;;;;;;;;;;;;;;;;;;4990860;28;20310;-88
2023/04/15 07:56:57;;;;;;;;;;;;;;;;;;4990458;28;19926;-86
2023/04/15 07:59:26;;;;;;;;;;;;;;;;;;4988173;28;20362;-87
2023/04/15 08:01:54;;;;;;;;;;;;;;;;;;4990533;28;20005;-85
2023/04/15 08:04:21;;;;;;;;;;;;;;;;;;5006824;28;19936;-86
2023/04/15 08:06:49;;;;;;;;;;;;;;;;;;5003970;28;20276;-87
2023/04/15 08:09:16;;;;;;;;;;;;;;;;;;4991481;28;19933;-85
2023/04/15 08:11:44;;;;;;;;;;;;;;;;;;5006728;28;19926;-85
2023/04/15 08:14:16;;;;;;;;;;;;;;;;;;5005210;28;19930;-85
2023/04/15 08:16:44;;;;;;;;;;;;;;;;;;4990139;28;19926;-87
2023/04/15 08:19:11;;;;;;;;;;;;;;;;;;5006326;28;20400;-85
2023/04/15 08:21:44;;;;;;;;;;;;;;;;;;4990730;28;19933;-87
2023/04/15 08:24:11;;;;;;;;;;;;;;;;;;4991418;28;19929;-86
2023/04/15 08:26:39;;;;;;;;;;;;;;;;;;4990795;28;19933;-87
2023/04/15 08:29:07;;;;;;;;;;;;;;;;;;5006043;28;20605;-87
2023/04/15 08:31:39;;;;;;;;;;;;;;;;;;4988197;28;20371;-85
2023/04/15 08:34:07;;;;;;;;;;;;;;;;;;4992077;28;20383;-85
2023/04/15 08:36:34;;;;;;;;;;;;;;;;;;4989842;28;19926;-86
2023/04/15 08:39:03;;;;;;;;;;;;;;;;;;4991498;28;19929;-87
2023/04/15 08:41:33;;;;;;;;;;;;;;;;;;4988854;28;20494;-88
2023/04/15 08:44:00;;;;;;;;;;;;;;;;;;5006180;28;19937;-88
2023/04/15 08:46:28;;;;;;;;;;;;;;;;;;4991376;28;19925;-89
2023/04/15 08:49:00;;;;;;;;;;;;;;;;;;4992609;28;19933;-85
2023/04/15 08:51:28;;;;;;;;;;;;;;;;;;4990767;28;19929;-86
2023/04/15 08:54:01;;;;;;;;;;;;;;;;;;4991565;28;19926;-87
2023/04/15 08:56:33;;;;;;;;;;;;;;;;;;4989250;28;20413;-85
2023/04/15 08:59:01;;;;;;;;;;;;;;;;;;5007471;28;19933;-86
2023/04/15 09:01:28;;;;;;;;;;;;;;;;;;4991557;28;19933;-86
2023/04/15 09:03:56;;;;;;;;;;;;;;;;;;4991153;28;20294;-88
2023/04/15 09:06:23;;;;;;;;;;;;;;;;;;4991723;28;20385;-84
2023/04/15 09:08:51;;;;;;;;;;;;;;;;;;4991742;28;19926;-84
2023/04/15 09:11:24;;;;;;;;;;;;;;;;;;4988748;28;20279;-86
2023/04/15 09:13:52;;;;;;;;;;;;;;;;;;5006511;28;19934;-87
2023/04/15 09:16:19;;;;;;;;;;;;;;;;;;5010156;28;19926;-87
2023/04/15 09:18:47;;;;;;;;;;;;;;;;;;4992166;28;19930;-85
2023/04/15 09:21:14;;;;;;;;;;;;;;;;;;5009477;28;19930;-88
2023/04/15 09:23:47;;;;;;;;;;;;;;;;;;5010895;28;19930;-87
2023/04/15 09:26:19;;;;;;;;;;;;;;;;;;5005671;28;19932;-85
2023/04/15 09:28:47;;;;;;;;;;;;;;;;;;4993272;28;19930;-85
2023/04/15 09:31:20;;;;;;;;;;;;;;;;;;5006576;28;19941;-85
2023/04/15 09:33:47;;;;;;;;;;;;;;;;;;4990329;28;20310;-86
2023/04/15 09:36:15;;;;;;;;;;;;;;;;;;4993505;28;20402;-86
2023/04/15 09:38:47;;;;;;;;;;;;;;;;;;4995136;28;19940;-85
2023/04/15 09:41:20;;;;;;;;;;;;;;;;;;4985775;28;19934;-84
2023/04/15 09:43:47;;;;;;;;;;;;;;;;;;5007494;28;19930;-86
2023/04/15 09:46:22;;;;;;;;;;;;;;;;;;4992256;28;19929;-83
2023/04/15 09:48:55;;;;;;;;;;;;;;;;;;4993244;28;20402;-83
2023/04/15 09:51:22;;;;;;;;;;;;;;;;;;4989839;28;20280;-85
2023/04/15 09:53:55;;;;;;;;;;;;;;;;;;4984696;28;19938;-84
2023/04/15 09:56:22;;;;;;;;;;;;;;;;;;4992834;28;19937;-85
2023/04/15 09:58:50;;;;;;;;;;;;;;;;;;4994234;28;19926;-85
2023/04/15 10:01:17;;;;;;;;;;;;;;;;;;4992424;28;20310;-84
2023/04/15 10:03:45;;;;;;;;;;;;;;;;;;5001205;28;20435;-85
2023/04/15 10:06:13;;;;;;;;;;;;;;;;;;4989211;28;19930;-83
2023/04/15 10:08:41;;;;;;;;;;;;;;;;;;5007377;28;19930;-85
2023/04/15 10:11:09;;;;;;;;;;;;;;;;;;4992105;28;19926;-85
2023/04/15 10:13:37;;;;;;;;;;;;;;;;;;5006506;28;19925;-84
2023/04/15 10:16:04;;;;;;;;;;;;;;;;;;4993052;28;19953;-84
2023/04/15 10:18:31;;;;;;;;;;;;;;;;;;4993401;28;19926;-81
2023/04/15 10:20:59;;;;;;;;;;;;;;;;;;5007023;28;19937;-85
2023/04/15 10:23:27;;;;;;;;;;;;;;;;;;4977145;28;19941;-82
2023/04/15 10:25:59;;;;;;;;;;;;;;;;;;4995788;28;19925;-84
2023/04/15 10:28:27;;;;;;;;;;;;;;;;;;4992953;28;19940;-82
2023/04/15 10:30:59;;;;;;;;;;;;;;;;;;4972192;28;19933;-82
2023/04/15 10:33:27;;;;;;;;;;;;;;;;;;4973468;28;19941;-83
2023/04/15 10:35:55;;;;;;;;;;;;;;;;;;4971777;28;20350;-83
2023/04/15 10:38:22;;;;;;;;;;;;;;;;;;4980147;28;19934;-84
2023/04/15 10:40:50;;;;;;;;;;;;;;;;;;4985797;28;19933;-83
2023/04/15 10:43:22;;;;;;;;;;;;;;;;;;4977574;28;19940;-84
2023/04/15 10:45:50;;;;;;;;;;;;;;;;;;4994279;28;19934;-81
2023/04/15 10:48:17;;;;;;;;;;;;;;;;;;4994056;28;20707;-82
2023/04/15 10:50:45;;;;;;;;;;;;;;;;;;4992780;28;19934;-82
2023/04/15 10:53:12;;;;;;;;;;;;;;;;;;4984070;28;19934;-84
2023/04/15 10:55:40;;;;;;;;;;;;;;;;;;4972975;28;19996;-87
2023/04/15 10:58:08;;;;;;;;;;;;;;;;;;4974889;28;19936;-85
2023/04/15 11:00:36;;;;;;;;;;;;;;;;;;4973687;28;19980;-83
2023/04/15 11:03:08;;;;;;;;;;;;;;;;;;4977644;28;19934;-82
2023/04/15 11:05:36;;;;;;;;;;;;;;;;;;4976956;28;20499;-81
2023/04/15 11:08:03;;;;;;;;;;;;;;;;;;4975120;28;19964;-84
2023/04/15 11:10:31;;;;;;;;;;;;;;;;;;4978745;28;19934;-82
2023/04/15 11:12:58;;;;;;;;;;;;;;;;;;4993827;28;19934;-81
2023/04/15 11:15:31;;;;;;;;;;;;;;;;;;4993226;28;20338;-81
2023/04/15 11:17:58;;;;;;;;;;;;;;;;;;4979757;28;19934;-82
2023/04/15 11:20:26;;;;;;;;;;;;;;;;;;4971264;28;20244;-83
2023/04/15 11:22:54;;;;;;;;;;;;;;;;;;4972013;28;21478;-84
2023/04/15 11:25:21;;;;;;;;;;;;;;;;;;4983635;28;20338;-84
2023/04/15 11:27:49;;;;;;;;;;;;;;;;;;4976450;28;19933;-83
2023/04/15 11:30:17;;;;;;;;;;;;;;;;;;4966344;28;19937;-83
2023/04/15 11:32:44;;;;;;;;;;;;;;;;;;4983853;28;19926;-83
2023/04/15 11:35:12;;;;;;;;;;;;;;;;;;4983374;28;19933;-83
2023/04/15 11:37:44;;;;;;;;;;;;;;;;;;4974482;28;19934;-82
2023/04/15 11:40:12;;;;;;;;;;;;;;;;;;4984642;28;19933;-84
2023/04/15 11:42:46;;;;;;;;;;;;;;;;;;4983730;28;19941;-84
2023/04/15 11:45:13;;;;;;;;;;;;;;;;;;4966178;28;19934;-82
2023/04/15 11:47:41;;;;;;;;;;;;;;;;;;4971938;28;20510;-82
2023/04/15 11:50:08;;;;;;;;;;;;;;;;;;4987241;28;21226;-84
2023/04/15 11:52:35;;;;;;;;;;;;;;;;;;4986784;28;19988;-84
2023/04/15 11:55:08;;;;;;;;;;;;;;;;;;4967895;28;20693;-82
2023/04/15 11:57:36;;;;;;;;;;;;;;;;;;4964748;28;19934;-82
2023/04/15 12:00:04;;;;;;;;;;;;;;;;;;4969216;28;19934;-82
2023/04/15 12:02:36;;;;;;;;;;;;;;;;;;4972314;28;19934;-82
2023/04/15 12:05:04;;;;;;;;;;;;;;;;;;4968506;28;19940;-83
2023/04/15 12:07:31;;;;;;;;;;;;;;;;;;4979686;28;19941;-84
2023/04/15 12:09:59;;;;;;;;;;;;;;;;;;4970081;28;19933;-83
2023/04/15 12:12:27;;;;;;;;;;;;;;;;;;4983444;28;19940;-82
2023/04/15 12:14:55;;;;;;;;;;;;;;;;;;4981591;28;19933;-80
2023/04/15 12:17:22;;;;;;;;;;;;;;;;;;4968466;28;19940;-83
2023/04/15 12:19:55;;;;;;;;;;;;;;;;;;4976214;28;19934;-85
2023/04/15 12:22:22;;;;;;;;;;;;;;;;;;4971139;28;19934;-84
2023/04/15 12:24:50;;;;;;;;;;;;;;;;;;4969716;28;19934;-82
2023/04/15 12:27:22;;;;;;;;;;;;;;;;;;4971768;28;19933;-81
2023/04/15 12:29:50;;;;;;;;;;;;;;;;;;4967737;28;20426;-81
2023/04/15 12:32:19;;;;;;;;;;;;;;;;;;4969407;28;20564;-83
2023/04/15 12:34:52;;;;;;;;;;;;;;;;;;4986769;28;19937;-81
2023/04/15 12:37:24;;;;;;;;;;;;;;;;;;4966748;28;19941;-81
2023/04/15 12:39:57;;;;;;;;;;;;;;;;;;4967722;28;19929;-82
2023/04/15 12:42:29;;;;;;;;;;;;;;;;;;4965869;28;19933;-81
2023/04/15 12:44:57;;;;;;;;;;;;;;;;;;4972049;28;19941;-81
2023/04/15 12:47:24;;;;;;;;;;;;;;;;;;4983966;28;19945;-82
2023/04/15 12:49:52;;;;;;;;;;;;;;;;;;4969392;28;19934;-80
2023/04/15 12:52:25;;;;;;;;;;;;;;;;;;4969354;28;19940;-81
2023/04/15 12:54:52;;;;;;;;;;;;;;;;;;4971662;28;19934;-81
2023/04/15 12:57:20;;;;;;;;;;;;;;;;;;4983162;28;21014;-82
2023/04/15 12:59:48;;;;;;;;;;;;;;;;;;4980135;28;19933;-82
2023/04/15 13:02:15;;;;;;;;;;;;;;;;;;4972312;28;21158;-80
2023/04/15 13:04:43;;;;;;;;;;;;;;;;;;4983510;28;19934;-82
2023/04/15 13:07:12;;;;;;;;;;;;;;;;;;4965887;28;20594;-80
2023/04/15 13:09:39;;;;;;;;;;;;;;;;;;4968607;28;19941;-82
2023/04/15 13:12:13;;;;;;;;;;;;;;;;;;4985522;28;19941;-80
2023/04/15 13:14:45;;;;;;;;;;;;;;;;;;4975027;28;19933;-81
2023/04/15 13:17:13;;;;;;;;;;;;;;;;;;4973190;28;19942;-81
2023/04/15 13:19:46;;;;;;;;;;;;;;;;;;4978392;28;19933;-82
2023/04/15 13:22:18;;;;;;;;;;;;;;;;;;4991344;28;19941;-81
2023/04/15 13:24:46;;;;;;;;;;;;;;;;;;4969642;28;19934;-80
2023/04/15 13:27:13;;;;;;;;;;;;;;;;;;4969172;28;20258;-80
2023/04/15 13:29:46;;;;;;;;;;;;;;;;;;4987065;28;19934;-81
2023/04/15 13:32:18;;;;;;;;;;;;;;;;;;4990939;28;19926;-81
2023/04/15 13:34:51;;;;;;;;;;;;;;;;;;4970183;28;19933;-82
2023/04/15 13:37:23;;;;;;;;;;;;;;;;;;4989535;28;20271;-82
2023/04/15 13:39:56;;;;;;;;;;;;;;;;;;4984698;28;19945;-82
2023/04/15 13:42:23;;;;;;;;;;;;;;;;;;4994794;28;19933;-82
2023/04/15 13:44:56;;;;;;;;;;;;;;;;;;4975363;28;19933;-81
2023/04/15 13:47:23;;;;;;;;;;;;;;;;;;4985292;28;20604;-82
2023/04/15 13:49:51;;;;;;;;;;;;;;;;;;4990447;28;19933;-81
2023/04/15 13:52:19;;;;;;;;;;;;;;;;;;4981510;28;20542;-80
2023/04/15 13:54:47;;;;;;;;;;;;;;;;;;4958569;28;19934;-81
2023/04/15 13:57:14;;;;;;;;;;;;;;;;;;4981105;28;20379;-80
2023/04/15 13:59:42;;;;;;;;;;;;;;;;;;4980280;28;19941;-81
2023/04/15 14:02:15;;;;;;;;;;;;;;;;;;4983179;28;19934;-82
2023/04/15 14:04:46;;;;;;;;;;;;;;;;;;4978244;28;19952;-81
2023/04/15 14:07:13;;;;;;;;;;;;;;;;;;4964595;28;20734;-82
2023/04/15 14:09:41;;;;;;;;;;;;;;;;;;4973161;28;20417;-82
2023/04/15 14:12:13;;;;;;;;;;;;;;;;;;4964526;28;20334;-81
2023/04/15 14:14:41;;;;;;;;;;;;;;;;;;4963365;28;19933;-81
2023/04/15 14:17:08;;;;;;;;;;;;;;;;;;4980727;28;20310;-79
2023/04/15 14:19:36;;;;;;;;;;;;;;;;;;4979543;28;20016;-81
2023/04/15 14:22:03;;;;;;;;;;;;;;;;;;4974350;28;19929;-83
2023/04/15 14:24:31;;;;;;;;;;;;;;;;;;4994536;28;19933;-82
2023/04/15 14:26:58;;;;;;;;;;;;;;;;;;4968280;28;20778;-81
2023/04/15 14:29:26;;;;;;;;;;;;;;;;;;4970590;28;20350;-80
2023/04/15 14:31:55;;;;;;;;;;;;;;;;;;4964215;28;19934;-81
2023/04/15 14:34:28;;;;;;;;;;;;;;;;;;4977460;28;19934;-85
2023/04/15 14:36:55;;;;;;;;;;;;;;;;;;4984451;28;19933;-80
2023/04/15 14:39:23;;;;;;;;;;;;;;;;;;4968176;28;19937;-82
2023/04/15 14:41:55;;;;;;;;;;;;;;;;;;4966382;28;19934;-81
2023/04/15 14:44:23;;;;;;;;;;;;;;;;;;4985168;28;19945;-80
2023/04/15 14:46:50;;;;;;;;;;;;;;;;;;4985869;28;19930;-80
2023/04/15 14:49:23;;;;;;;;;;;;;;;;;;4983925;28;19933;-81
2023/04/15 14:51:50;;;;;;;;;;;;;;;;;;4967517;28;19933;-83
2023/04/15 14:54:23;;;;;;;;;;;;;;;;;;4968322;28;19957;-85
2023/04/15 14:56:50;;;;;;;;;;;;;;;;;;4969618;28;19934;-80
2023/04/15 14:59:23;;;;;;;;;;;;;;;;;;4981205;28;19945;-79
2023/04/15 15:01:50;;;;;;;;;;;;;;;;;;4966155;28;19934;-79
2023/04/15 15:04:23;;;;;;;;;;;;;;;;;;4977553;28;19934;-81
2023/04/15 15:06:50;;;;;;;;;;;;;;;;;;4986087;28;19933;-81
2023/04/15 15:09:23;;;;;;;;;;;;;;;;;;4972608;28;20515;-81
2023/04/15 15:11:51;;;;;;;;;;;;;;;;;;4968727;28;19934;-81
2023/04/15 15:14:18;;;;;;;;;;;;;;;;;;4967000;28;19933;-78
2023/04/15 15:16:46;;;;;;;;;;;;;;;;;;4977945;28;19933;-84
2023/04/15 15:19:18;;;;;;;;;;;;;;;;;;4985674;28;19933;-80
2023/04/15 15:21:51;;;;;;;;;;;;;;;;;;4973520;28;20504;-82
2023/04/15 15:24:18;;;;;;;;;;;;;;;;;;4964472;28;19941;-81
2023/04/15 15:26:46;;;;;;;;;;;;;;;;;;4956902;28;19941;-80
2023/04/15 15:29:18;;;;;;;;;;;;;;;;;;4960363;28;19941;-80
2023/04/15 15:31:46;;;;;;;;;;;;;;;;;;4986348;28;19934;-80
2023/04/15 15:34:19;;;;;;;;;;;;;;;;;;4979669;28;19934;-82
2023/04/15 15:36:46;;;;;;;;;;;;;;;;;;4983931;28;21052;-80
2023/04/15 15:39:19;;;;;;;;;;;;;;;;;;4980459;28;19961;-80
2023/04/15 15:41:51;;;;;;;;;;;;;;;;;;4988488;28;19941;-83
2023/04/15 15:44:24;;;;;;;;;;;;;;;;;;4985253;28;19930;-81
2023/04/15 15:46:51;;;;;;;;;;;;;;;;;;4966427;28;19933;-83
2023/04/15 15:49:26;;;;;;;;;;;;;;;;;;4974279;28;19937;-80
2023/04/15 15:51:54;;;;;;;;;;;;;;;;;;4989732;28;20402;-81
2023/04/15 15:54:21;;;;;;;;;;;;;;;;;;4987061;28;19933;-83
2023/04/15 15:56:49;;;;;;;;;;;;;;;;;;4962718;28;20286;-82
2023/04/15 15:59:16;;;;;;;;;;;;;;;;;;4968899;28;19945;-81
2023/04/15 16:01:44;;;;;;;;;;;;;;;;;;4968178;28;19934;-80
2023/04/15 16:04:12;;;;;;;;;;;;;;;;;;4976952;28;20295;-80
2023/04/15 16:06:39;;;;;;;;;;;;;;;;;;4979306;28;19933;-81
2023/04/15 16:09:07;;;;;;;;;;;;;;;;;;4966017;28;19946;-80
2023/04/15 16:11:34;;;;;;;;;;;;;;;;;;4964535;28;19933;-79
2023/04/15 16:14:02;;;;;;;;;;;;;;;;;;4970216;28;20379;-81
2023/04/15 16:16:29;;;;;;;;;;;;;;;;;;4980595;28;19940;-81
2023/04/15 16:18:57;;;;;;;;;;;;;;;;;;4988338;28;19945;-81
2023/04/15 16:21:26;;;;;;;;;;;;;;;;;;4966423;28;19940;-81
2023/04/15 16:23:58;;;;;;;;;;;;;;;;;;4955226;28;20198;-78
2023/04/15 16:26:26;;;;;;;;;;;;;;;;;;4961360;28;20016;-79
2023/04/15 16:28:53;;;;;;;;;;;;;;;;;;4972860;28;19941;-79
2023/04/15 16:31:26;;;;;;;;;;;;;;;;;;4991656;28;20556;-82
2023/04/15 16:33:53;;;;;;;;;;;;;;;;;;4974338;28;20271;-82
2023/04/15 16:36:21;;;;;;;;;;;;;;;;;;4960817;28;19941;-81
2023/04/15 16:38:48;;;;;;;;;;;;;;;;;;4965419;28;19941;-83
2023/04/15 16:41:17;;;;;;;;;;;;;;;;;;4968057;28;19934;-79
2023/04/15 16:43:45;;;;;;;;;;;;;;;;;;4986009;28;19933;-81
2023/04/15 16:46:13;;;;;;;;;;;;;;;;;;4972303;28;19937;-80
2023/04/15 16:48:46;;;;;;;;;;;;;;;;;;4986966;28;19940;-80
2023/04/15 16:51:13;;;;;;;;;;;;;;;;;;4965773;28;19948;-79
2023/04/15 16:53:46;;;;;;;;;;;;;;;;;;4963799;28;19933;-79
2023/04/15 16:56:18;;;;;;;;;;;;;;;;;;4982639;28;21560;-81
2023/04/15 16:58:46;;;;;;;;;;;;;;;;;;4961465;28;19934;-80